Sincerity Ace — 3FFD7 — position and weather

sailwx.info

Track history (hours):
 
Tides and Currents Weather Stations Pressure Air Temp Water Temp Dewpoint Dewpoint Depression Visibility Wind Speed Wind Dir Waves Ship Positions

Sincerity Ace

Last reported at 2016-Sep-21 09:33 UTC. Time now 2016-Sep-28 03:26 UTC.
Position N 34°38' E 135°16'.

Length 200 m; draft 9.1 m.

Type: Cargo ship. MMSI: 351690000.

Date/timePositionNaut miles runAvg speedWind from/ knotsBaromVisibWave heightAir tempDewpointWater temp
2016-Sep-21 09:33N 34°38' E 135°16'4 3.6
2016-Sep-21 08:22N 34°42' E 135°14'0 0.0
2016-Sep-21 03:28N 34°42' E 135°14'0 0.0
2016-Sep-21 02:28N 34°42' E 135°14'11 1.2
2016-Sep-20 17:29N 34°31' E 135°11'0 0.0
2016-Sep-20 14:29N 34°31' E 135°11'0 0.0
2016-Sep-20 13:29N 34°31' E 135°11'0 0.1
2016-Sep-20 10:33N 34°31' E 135°11'5 2.7
2016-Sep-20 08:33N 34°27' E 135°06'1 1.2
2016-Sep-20 07:33N 34°29' E 135°06'1 0.9
2016-Sep-20 06:33N 34°29' E 135°07'4 1.0
2016-Sep-20 02:33N 34°31' E 135°11'0 0.1
2016-Sep-19 23:31N 34°31' E 135°11'0 0.0
2016-Sep-19 19:31N 34°31' E 135°11'0 0.0
2016-Sep-19 18:25N 34°31' E 135°11'0 0.0
2016-Sep-19 16:25N 34°31' E 135°11'0 0.0
2016-Sep-19 14:25N 34°31' E 135°11'0 0.1
2016-Sep-19 13:31N 34°31' E 135°11'0 0.1
2016-Sep-19 12:31N 34°31' E 135°11'0 0.1
2016-Sep-19 11:31N 34°31' E 135°11'0 0.0
2016-Sep-19 09:25N 34°31' E 135°11'3 1.4
2016-Sep-19 07:33N 34°33' E 135°12'10 9.6
2016-Sep-19 06:34N 34°42' E 135°17'1 0.2
2016-Sep-19 03:07N 34°42' E 135°17'0 0.0
2016-Sep-19 02:25N 34°42' E 135°17'0 0.0
2016-Sep-19 00:31N 34°42' E 135°17'0 0.0
2016-Sep-18 19:31N 34°42' E 135°17'0 0.0
2016-Sep-18 15:25N 34°42' E 135°17'0 0.0
2016-Sep-18 14:31N 34°42' E 135°17'0 0.0
2016-Sep-18 10:31N 34°42' E 135°17'0 0.0
2016-Sep-18 09:25N 34°42' E 135°17'0 0.0
2016-Sep-18 02:33N 34°42' E 135°17'5 4.5
2016-Sep-18 01:33N 34°37' E 135°18'1817.8
2016-Sep-18 00:33N 34°23' E 135°05'2211.1
2016-Sep-17 22:33N 34°01' E 134°59'  
2016-Sep-14 13:33N 35°17' E 139°45'8 8.0
2016-Sep-14 12:33N 35°24' E 139°48'5 2.5
2016-Sep-14 10:33N 35°22' E 139°54'0 0.0
2016-Sep-14 09:33N 35°22' E 139°54'0 0.0
2016-Sep-14 08:30N 35°22' E 139°54'0 0.0
2016-Sep-14 07:33N 35°22' E 139°54'0 0.0
2016-Sep-14 06:30N 35°22' E 139°54'0 0.0
2016-Sep-14 03:33N 35°22' E 139°54'0 0.0
2016-Sep-13 22:33N 35°22' E 139°54'0 0.0
2016-Sep-13 20:33N 35°22' E 139°54'0 0.0
2016-Sep-13 18:33N 35°22' E 139°54'0 0.0
2016-Sep-13 17:33N 35°22' E 139°54'0 0.0
2016-Sep-13 16:33N 35°22' E 139°54'0 0.0
2016-Sep-13 11:33N 35°22' E 139°54'7 3.6
2016-Sep-13 09:34N 35°26' E 139°46'4 2.0
2016-Sep-13 07:31N 35°28' E 139°41'0 0.0
2016-Sep-13 06:31N 35°28' E 139°41'0 0.0
2016-Sep-13 04:31N 35°28' E 139°41'0 0.0
2016-Sep-13 02:31N 35°28' E 139°41'0 0.0
2016-Sep-12 23:31N 35°28' E 139°41'2 1.1
2016-Sep-12 21:33N 35°27' E 139°44'2110.6
2016-Sep-12 19:33N 35°06' E 139°46'16 8.2
2016-Sep-12 17:33N 34°50' E 139°42'  
Track history (hours):
 
Tides and Currents Weather Stations Pressure Air Temp Water Temp Dewpoint Dewpoint Depression Visibility Wind Speed Wind Dir Waves Ship Positions

Sincerity Ace

Last reported at 2016-Sep-21 09:33 UTC. Time now 2016-Sep-28 03:26 UTC.
Position N 34°38' E 135°16'.

Length 200 m; draft 9.1 m.

Type: Cargo ship. MMSI: 351690000.

Date/timePositionNaut miles runAvg speedWind from/ knotsBaromVisibWave heightAir tempDewpointWater temp
2016-Sep-21 09:33N 34°38' E 135°16'4 3.6
2016-Sep-21 08:22N 34°42' E 135°14'0 0.0
2016-Sep-21 03:28N 34°42' E 135°14'0 0.0
2016-Sep-21 02:28N 34°42' E 135°14'11 1.2
2016-Sep-20 17:29N 34°31' E 135°11'0 0.0
2016-Sep-20 14:29N 34°31' E 135°11'0 0.0
2016-Sep-20 13:29N 34°31' E 135°11'0 0.1
2016-Sep-20 10:33N 34°31' E 135°11'5 2.7
2016-Sep-20 08:33N 34°27' E 135°06'1 1.2
2016-Sep-20 07:33N 34°29' E 135°06'1 0.9
2016-Sep-20 06:33N 34°29' E 135°07'4 1.0
2016-Sep-20 02:33N 34°31' E 135°11'0 0.1
2016-Sep-19 23:31N 34°31' E 135°11'0 0.0
2016-Sep-19 19:31N 34°31' E 135°11'0 0.0
2016-Sep-19 18:25N 34°31' E 135°11'0 0.0
2016-Sep-19 16:25N 34°31' E 135°11'0 0.0
2016-Sep-19 14:25N 34°31' E 135°11'0 0.1
2016-Sep-19 13:31N 34°31' E 135°11'0 0.1
2016-Sep-19 12:31N 34°31' E 135°11'0 0.1
2016-Sep-19 11:31N 34°31' E 135°11'0 0.0
2016-Sep-19 09:25N 34°31' E 135°11'3 1.4
2016-Sep-19 07:33N 34°33' E 135°12'10 9.6
2016-Sep-19 06:34N 34°42' E 135°17'1 0.2
2016-Sep-19 03:07N 34°42' E 135°17'0 0.0
2016-Sep-19 02:25N 34°42' E 135°17'0 0.0
2016-Sep-19 00:31N 34°42' E 135°17'0 0.0
2016-Sep-18 19:31N 34°42' E 135°17'0 0.0
2016-Sep-18 15:25N 34°42' E 135°17'0 0.0
2016-Sep-18 14:31N 34°42' E 135°17'0 0.0
2016-Sep-18 10:31N 34°42' E 135°17'0 0.0
2016-Sep-18 09:25N 34°42' E 135°17'0 0.0
2016-Sep-18 02:33N 34°42' E 135°17'5 4.5
2016-Sep-18 01:33N 34°37' E 135°18'1817.8
2016-Sep-18 00:33N 34°23' E 135°05'2211.1
2016-Sep-17 22:33N 34°01' E 134°59'  
2016-Sep-14 13:33N 35°17' E 139°45'8 8.0
2016-Sep-14 12:33N 35°24' E 139°48'5 2.5
2016-Sep-14 10:33N 35°22' E 139°54'0 0.0
2016-Sep-14 09:33N 35°22' E 139°54'0 0.0
2016-Sep-14 08:30N 35°22' E 139°54'0 0.0
2016-Sep-14 07:33N 35°22' E 139°54'0 0.0
2016-Sep-14 06:30N 35°22' E 139°54'0 0.0
2016-Sep-14 03:33N 35°22' E 139°54'0 0.0
2016-Sep-13 22:33N 35°22' E 139°54'0 0.0
2016-Sep-13 20:33N 35°22' E 139°54'0 0.0
2016-Sep-13 18:33N 35°22' E 139°54'0 0.0
2016-Sep-13 17:33N 35°22' E 139°54'0 0.0
2016-Sep-13 16:33N 35°22' E 139°54'0 0.0
2016-Sep-13 11:33N 35°22' E 139°54'7 3.6
2016-Sep-13 09:34N 35°26' E 139°46'4 2.0
2016-Sep-13 07:31N 35°28' E 139°41'0 0.0
2016-Sep-13 06:31N 35°28' E 139°41'0 0.0
2016-Sep-13 04:31N 35°28' E 139°41'0 0.0
2016-Sep-13 02:31N 35°28' E 139°41'0 0.0
2016-Sep-12 23:31N 35°28' E 139°41'2 1.1
2016-Sep-12 21:33N 35°27' E 139°44'2110.6
2016-Sep-12 19:33N 35°06' E 139°46'16 8.2
2016-Sep-12 17:33N 34°50' E 139°42'  

Dump ship's entire track history